Time;durP1;ratioP1;P1;durP2;ratioP2;P2;SDS_P1;SDS_P2;PMS_P1;PMS_P2;Temp;Humidity;BMP_temperature;BMP_pressure;BME280_temperature;BME280_humidity;BME280_pressure;Samples;Min_cycle;Max_cycle;Signal;HPM_P1;HPM_P2
2021/09/22 04:31:01;;;;;;;18.00;13.10;;;6.40;99.90;;;;;;6144431;22;21322;31
2021/09/22 04:33:26;;;;;;;18.63;13.53;;;6.40;99.90;;;;;;4988926;28;20514;-76
2021/09/22 04:35:53;;;;;;;16.20;12.40;;;6.40;99.90;;;;;;4990360;28;20439;-76
2021/09/22 04:38:18;;;;;;;19.30;12.93;;;6.40;99.90;;;;;;4956237;28;20207;-76
2021/09/22 04:40:44;;;;;;;18.80;12.97;;;6.40;99.90;;;;;;4977972;28;20438;-75
2021/09/22 04:43:10;;;;;;;15.07;11.67;;;6.40;99.90;;;;;;4993273;28;20452;-75
2021/09/22 04:45:36;;;;;;;19.07;13.43;;;6.40;99.90;;;;;;4993196;28;20185;-75
2021/09/22 04:48:02;;;;;;;21.63;13.57;;;6.40;99.90;;;;;;4992865;28;20577;-75
2021/09/22 04:50:28;;;;;;;16.00;11.60;;;6.40;99.90;;;;;;4992565;28;20509;-75
2021/09/22 04:52:54;;;;;;;24.40;14.57;;;6.30;99.90;;;;;;4992313;28;20200;-75
2021/09/22 04:55:20;;;;;;;18.67;12.30;;;6.30;99.90;;;;;;4992711;28;20412;-76
2021/09/22 04:57:45;;;;;;;18.63;13.13;;;6.30;99.90;;;;;;4992373;28;20358;-76
2021/09/22 05:00:12;;;;;;;17.57;13.20;;;6.30;99.90;;;;;;4992609;28;20608;-76
2021/09/22 05:02:38;;;;;;;19.27;12.47;;;6.20;99.90;;;;;;4992537;28;20187;-75
2021/09/22 05:05:04;;;;;;;18.00;13.20;;;6.30;99.90;;;;;;4991223;28;20426;-79
2021/09/22 05:07:29;;;;;;;16.10;11.80;;;6.30;99.90;;;;;;4992424;28;20551;-78
2021/09/22 05:09:55;;;;;;;17.63;11.90;;;6.30;99.90;;;;;;4992526;28;20413;-78
2021/09/22 05:12:21;;;;;;;17.10;12.40;;;6.30;99.90;;;;;;4991158;28;20200;-78
2021/09/22 05:14:47;;;;;;;15.53;13.03;;;6.40;99.90;;;;;;4992299;28;20816;-78
2021/09/22 05:17:12;;;;;;;15.03;11.97;;;6.40;99.90;;;;;;4992451;28;20209;-79
2021/09/22 05:19:38;;;;;;;15.80;11.83;;;6.40;99.90;;;;;;4992742;28;20181;-79
2021/09/22 05:22:04;;;;;;;16.80;12.00;;;6.40;99.90;;;;;;4992507;28;20199;-79
2021/09/22 05:24:29;;;;;;;16.57;12.03;;;6.40;99.90;;;;;;4991799;28;20271;-78
2021/09/22 05:26:55;;;;;;;17.00;12.70;;;6.50;99.90;;;;;;4993268;28;20188;-77
2021/09/22 05:29:21;;;;;;;17.03;11.87;;;6.50;99.90;;;;;;4992693;28;20210;-77
2021/09/22 05:31:46;;;;;;;13.43;10.80;;;6.50;99.90;;;;;;4993006;28;20219;-77
2021/09/22 05:34:12;;;;;;;19.10;11.10;;;6.50;99.90;;;;;;4993167;28;20707;-77
2021/09/22 05:36:38;;;;;;;15.20;12.33;;;6.60;99.90;;;;;;4993329;28;20218;-78
2021/09/22 05:39:05;;;;;;;16.40;12.40;;;6.60;99.90;;;;;;4997441;28;20210;-78
2021/09/22 05:41:30;;;;;;;16.77;12.43;;;6.70;99.90;;;;;;4994525;28;20443;-77
2021/09/22 05:43:56;;;;;;;16.70;11.00;;;6.70;99.90;;;;;;4974993;28;20795;-77
2021/09/22 05:46:21;;;;;;;19.73;12.20;;;6.80;99.90;;;;;;4992630;28;20184;-77
2021/09/22 05:48:47;;;;;;;18.10;12.50;;;7.00;99.90;;;;;;4992733;28;20205;-76
2021/09/22 05:51:13;;;;;;;18.77;12.57;;;7.10;99.90;;;;;;4992195;28;20199;-76
2021/09/22 05:53:40;;;;;;;19.73;12.73;;;7.20;99.90;;;;;;4992001;28;20475;-76
2021/09/22 05:56:06;;;;;;;23.70;12.50;;;7.50;99.90;;;;;;4991758;28;20552;-77
2021/09/22 05:58:32;;;;;;;17.80;11.77;;;7.90;99.90;;;;;;4992109;28;20864;-77
2021/09/22 06:00:59;;;;;;;15.40;11.47;;;8.50;99.90;;;;;;4991780;28;20218;-76
2021/09/22 06:03:25;;;;;;;18.37;10.50;;;9.10;99.90;;;;;;4992085;28;20177;-77
2021/09/22 06:05:50;;;;;;;18.63;11.60;;;10.00;99.90;;;;;;4991784;28;20445;-78
2021/09/22 06:08:16;;;;;;;14.43;11.67;;;10.70;99.90;;;;;;4992075;28;20442;-77
2021/09/22 06:10:44;;;;;;;13.00;10.47;;;11.20;99.90;;;;;;4994670;28;20691;-77
2021/09/22 06:13:09;;;;;;;13.87;11.00;;;11.90;99.90;;;;;;4977869;28;20471;-77
2021/09/22 06:15:35;;;;;;;13.27;11.20;;;12.40;99.90;;;;;;4994127;28;20434;-78
2021/09/22 06:18:01;;;;;;;11.97;10.30;;;12.60;99.90;;;;;;4995408;28;20651;-77
2021/09/22 06:20:26;;;;;;;12.43;10.47;;;13.10;99.90;;;;;;4995236;28;20651;-77
2021/09/22 06:22:52;;;;;;;14.37;11.00;;;13.50;99.90;;;;;;4995231;28;20190;-77
2021/09/22 06:25:17;;;;;;;17.97;11.10;;;14.10;99.90;;;;;;4995344;28;20187;-77
2021/09/22 06:27:44;;;;;;;13.00;10.70;;;14.30;99.90;;;;;;4995731;28;20175;-78
2021/09/22 06:30:10;;;;;;;11.70;9.97;;;14.80;99.90;;;;;;4998562;28;20617;-78
2021/09/22 06:32:36;;;;;;;18.67;11.90;;;15.30;99.90;;;;;;4995055;28;20601;-78
2021/09/22 06:35:03;;;;;;;17.43;11.40;;;15.80;99.90;;;;;;4996254;28;20505;-78
2021/09/22 06:37:29;;;;;;;13.40;11.53;;;15.90;99.90;;;;;;4995063;28;20180;-80
2021/09/22 06:39:55;;;;;;;18.00;11.93;;;16.00;99.90;;;;;;4995045;28;20501;-79
2021/09/22 06:42:20;;;;;;;15.30;11.93;;;16.20;99.90;;;;;;4995369;28;20202;-79
2021/09/22 06:44:46;;;;;;;15.97;14.27;;;16.30;99.90;;;;;;4995241;28;20418;-79
2021/09/22 06:47:12;;;;;;;21.53;13.60;;;16.30;99.90;;;;;;4994908;28;20214;-79
2021/09/22 06:49:37;;;;;;;15.10;13.50;;;16.00;99.90;;;;;;4995192;28;20183;-79
2021/09/22 06:52:03;;;;;;;15.80;13.17;;;16.30;99.90;;;;;;4994860;28;20211;-79
2021/09/22 06:54:29;;;;;;;18.07;13.47;;;16.40;99.90;;;;;;4995054;28;20249;-79
2021/09/22 06:56:55;;;;;;;19.00;13.23;;;16.30;99.90;;;;;;4994993;28;20287;-79
2021/09/22 06:59:20;;;;;;;21.63;13.13;;;16.30;99.90;;;;;;4995065;28;20540;-79
2021/09/22 07:01:46;;;;;;;15.80;13.23;;;16.60;99.90;;;;;;4994705;28;20187;-80
2021/09/22 07:04:12;;;;;;;22.87;13.10;;;17.00;99.90;;;;;;4977409;28;20186;-79
2021/09/22 07:06:37;;;;;;;18.33;16.00;;;16.80;99.90;;;;;;4994408;28;20237;-79
2021/09/22 07:09:03;;;;;;;22.30;14.50;;;16.20;99.90;;;;;;4994447;28;20183;-79
2021/09/22 07:11:28;;;;;;;23.30;14.57;;;16.20;99.90;;;;;;4994752;28;20279;-80
2021/09/22 07:13:54;;;;;;;18.63;14.00;;;16.10;99.90;;;;;;4994880;28;20577;-79
2021/09/22 07:16:20;;;;;;;18.50;14.27;;;16.00;99.90;;;;;;4994578;28;20186;-79
2021/09/22 07:18:46;;;;;;;26.80;15.27;;;15.80;99.90;;;;;;4994715;28;20172;-79
2021/09/22 07:21:14;;;;;;;22.37;15.60;;;15.50;99.90;;;;;;4993427;28;20430;-79
2021/09/22 07:23:40;;;;;;;20.83;14.97;;;15.20;99.90;;;;;;4994760;28;20445;-79
2021/09/22 07:26:07;;;;;;;19.17;15.37;;;15.20;99.90;;;;;;4994816;28;20905;-79
2021/09/22 07:28:34;;;;;;;19.93;15.40;;;15.20;99.90;;;;;;4994763;28;20418;-79
2021/09/22 07:31:00;;;;;;;20.23;14.97;;;15.20;99.90;;;;;;4994293;28;20523;-78
2021/09/22 07:33:25;;;;;;;21.90;16.90;;;15.20;99.90;;;;;;4994391;28;20660;-79
2021/09/22 07:35:51;;;;;;;22.50;15.33;;;15.10;99.90;;;;;;4976513;28;20509;-79
2021/09/22 07:38:17;;;;;;;21.97;17.13;;;15.00;99.90;;;;;;4994312;28;20179;-79
2021/09/22 07:40:44;;;;;;;26.53;15.47;;;14.90;99.90;;;;;;4976485;28;20461;-79
2021/09/22 07:43:10;;;;;;;19.53;14.70;;;15.20;99.90;;;;;;4976584;28;20193;-79
2021/09/22 07:45:36;;;;;;;22.10;16.50;;;15.40;99.90;;;;;;4994146;28;20414;-79
2021/09/22 07:48:02;;;;;;;23.20;16.27;;;15.60;99.90;;;;;;4993838;28;20907;-79
2021/09/22 07:50:27;;;;;;;23.53;16.80;;;15.60;99.90;;;;;;4993856;28;20670;-79
2021/09/22 07:52:53;;;;;;;26.83;18.10;;;15.90;99.90;;;;;;5000843;28;20552;-80
2021/09/22 07:55:19;;;;;;;24.60;15.80;;;16.00;99.90;;;;;;4995824;28;20178;-79
2021/09/22 07:57:45;;;;;;;21.63;16.90;;;16.20;99.90;;;;;;5013193;28;20179;-79
2021/09/22 08:00:11;;;;;;;22.23;16.20;;;16.40;99.90;;;;;;5013723;28;20189;-79
2021/09/22 08:02:37;;;;;;;20.87;15.50;;;16.50;99.90;;;;;;5013595;28;20783;-79
2021/09/22 08:05:04;;;;;;;22.13;16.80;;;16.70;99.90;;;;;;5013389;28;20413;-79
2021/09/22 08:07:30;;;;;;;31.57;15.80;;;16.70;99.90;;;;;;5013628;28;20178;-80
2021/09/22 08:09:55;;;;;;;23.47;17.23;;;17.10;99.90;;;;;;5013456;28;20437;-79
2021/09/22 08:12:21;;;;;;;16.97;14.67;;;17.40;99.90;;;;;;5014771;28;20594;-80
2021/09/22 08:14:47;;;;;;;17.53;15.40;;;17.60;99.90;;;;;;4996797;28;20547;-79
2021/09/22 08:17:14;;;;;;;19.90;15.13;;;17.70;99.90;;;;;;5014456;28;20175;-79
2021/09/22 08:19:41;;;;;;;20.10;15.57;;;17.80;99.90;;;;;;5015610;28;20194;-80
2021/09/22 08:22:07;;;;;;;23.80;15.03;;;17.70;99.90;;;;;;5015128;28;20795;-79
2021/09/22 08:24:33;;;;;;;22.40;16.10;;;17.90;99.90;;;;;;4998147;28;20429;-80
2021/09/22 08:26:59;;;;;;;21.43;14.60;;;18.00;99.90;;;;;;5013955;28;20643;-79
2021/09/22 08:29:25;;;;;;;19.00;14.97;;;18.00;99.90;;;;;;5013929;28;20605;-79
2021/09/22 08:31:51;;;;;;;22.30;15.03;;;17.90;99.90;;;;;;5015155;28;20449;-80
2021/09/22 08:34:18;;;;;;;19.30;15.30;;;17.90;99.90;;;;;;5016436;28;20265;-79
2021/09/22 08:36:44;;;;;;;16.10;13.37;;;18.20;99.90;;;;;;5015905;28;20178;-80
2021/09/22 08:39:12;;;;;;;21.53;14.73;;;18.30;99.90;;;;;;5016521;28;20502;-80
2021/09/22 08:41:38;;;;;;;21.53;14.30;;;18.00;99.90;;;;;;4997938;28;20469;-80
2021/09/22 08:44:05;;;;;;;16.50;13.30;;;18.10;99.90;;;;;;5015165;28;20437;-79
2021/09/22 08:46:34;;;;;;;16.93;14.60;;;18.50;99.90;;;;;;5014218;28;20593;-80
2021/09/22 08:49:02;;;;;;;17.47;14.00;;;18.70;99.90;;;;;;5014783;28;20424;-79
2021/09/22 08:51:28;;;;;;;17.13;13.20;;;19.00;99.90;;;;;;5015091;28;20429;-79
2021/09/22 08:53:54;;;;;;;16.20;12.60;;;19.00;99.90;;;;;;5014302;28;20461;-80
2021/09/22 08:56:20;;;;;;;16.40;13.07;;;19.00;99.90;;;;;;5014276;28;20464;-80
2021/09/22 08:58:45;;;;;;;14.23;12.60;;;19.20;99.90;;;;;;5014798;28;20646;-79
2021/09/22 09:01:15;;;;;;;18.83;12.27;;;19.20;99.90;;;;;;5017301;28;20201;-80
2021/09/22 09:03:42;;;;;;;16.90;12.57;;;19.60;99.90;;;;;;5016805;28;20571;-79
2021/09/22 09:06:23;;;;;;;15.80;11.13;;;20.10;99.90;;;;;;5016573;28;20563;-79
2021/09/22 09:08:52;;;;;;;20.50;11.40;;;20.40;99.90;;;;;;5016362;28;20417;-80
2021/09/22 09:11:29;;;;;;;13.23;11.80;;;20.50;99.90;;;;;;5015473;28;20434;-80
2021/09/22 09:13:57;;;;;;;21.20;12.70;;;20.30;99.90;;;;;;5015156;28;20555;-80
2021/09/22 09:16:24;;;;;;;17.33;10.83;;;20.40;99.90;;;;;;5015431;28;20441;-81
2021/09/22 09:18:52;;;;;;;12.23;11.00;;;20.40;99.90;;;;;;4996856;28;20421;-82
2021/09/22 09:21:18;;;;;;;10.10;9.20;;;20.40;99.90;;;;;;5017219;28;20441;-80
2021/09/22 09:23:58;;;;;;;11.50;10.37;;;20.30;99.90;;;;;;5030104;23;20603;-76
2021/09/22 09:26:27;;;;;;;16.10;11.40;;;20.60;99.90;;;;;;5022119;28;20648;-76
2021/09/22 09:28:55;;;;;;;12.03;10.77;;;20.10;99.90;;;;;;5011051;28;20406;-76
2021/09/22 09:31:22;;;;;;;14.70;10.87;;;20.00;99.90;;;;;;5010612;28;20429;-77
2021/09/22 09:33:53;;;;;;;12.10;9.67;;;20.10;99.90;;;;;;5010498;28;20523;-76
2021/09/22 09:36:25;;;;;;;11.73;9.57;;;20.20;99.90;;;;;;5011831;28;20410;-76
2021/09/22 09:39:09;;;;;;;13.97;12.50;;;20.40;99.90;;;;;;5011241;28;20410;-77
2021/09/22 09:41:51;;;;;;;12.10;10.97;;;20.40;99.90;;;;;;5011115;28;20429;-77
2021/09/22 09:44:23;;;;;;;19.70;11.17;;;20.40;99.90;;;;;;5012225;28;20410;-77
2021/09/22 09:46:51;;;;;;;13.10;11.13;;;20.50;99.90;;;;;;5031460;28;20416;-76
2021/09/22 09:49:22;;;;;;;8.40;7.60;;;21.00;99.90;;;;;;5034927;28;20423;-77
2021/09/22 09:51:57;;;;;;;12.00;7.90;;;20.70;99.90;;;;;;5034439;28;20480;-76
2021/09/22 09:54:35;;;;;;;11.03;7.77;;;20.60;99.90;;;;;;5034475;28;20562;-76
2021/09/22 09:57:14;;;;;;;10.43;7.40;;;20.60;99.90;;;;;;5034187;28;20412;-76
2021/09/22 09:59:49;;;;;;;8.50;7.47;;;20.90;99.90;;;;;;5034379;28;20961;-78
2021/09/22 10:02:28;;;;;;;5.87;5.37;;;20.90;99.90;;;;;;5034424;28;20467;-77
2021/09/22 10:04:54;;;;;;;8.57;7.77;;;21.20;99.90;;;;;;5034344;28;20515;-76
2021/09/22 10:07:20;;;;;;;8.40;7.30;;;21.30;99.90;;;;;;5034338;28;20413;-78
2021/09/22 10:09:46;;;;;;;6.10;5.50;;;21.60;99.90;;;;;;5034387;28;20546;-77
2021/09/22 10:12:13;;;;;;;6.47;5.87;;;21.70;99.90;;;;;;5034642;28;20209;-77
2021/09/22 10:14:40;;;;;;;7.30;6.20;;;21.70;99.90;;;;;;5034320;28;20547;-77
2021/09/22 10:17:06;;;;;;;6.93;6.20;;;21.90;99.90;;;;;;5034023;28;20435;-77
2021/09/22 10:19:33;;;;;;;8.63;6.00;;;21.70;99.90;;;;;;5034451;28;20413;-77
2021/09/22 10:21:59;;;;;;;10.73;5.70;;;21.90;99.90;;;;;;5034152;28;20425;-77
2021/09/22 10:24:25;;;;;;;5.97;5.10;;;22.10;99.90;;;;;;5034188;28;20432;-77
2021/09/22 10:26:51;;;;;;;8.13;5.53;;;22.40;99.90;;;;;;5033700;28;20178;-77
2021/09/22 10:29:21;;;;;;;6.20;5.60;;;22.50;99.90;;;;;;5034172;28;20253;-77
2021/09/22 10:31:47;;;;;;;8.60;5.33;;;22.00;99.90;;;;;;5033789;28;20266;-77
2021/09/22 10:34:29;;;;;;;5.87;5.40;;;21.90;99.90;;;;;;5034082;28;20863;-77
2021/09/22 10:36:55;;;;;;;8.60;5.70;;;21.70;99.90;;;;;;5033854;28;20413;-74
2021/09/22 10:39:35;;;;;;;8.50;5.63;;;21.70;99.90;;;;;;5034104;28;20401;-77
2021/09/22 10:42:01;;;;;;;5.20;4.70;;;21.60;99.90;;;;;;5033749;28;20289;-77
2021/09/22 10:44:36;;;;;;;5.77;5.23;;;21.70;99.90;;;;;;5034131;28;20409;-76
2021/09/22 10:47:22;;;;;;;7.10;6.50;;;22.00;99.90;;;;;;5033385;28;20432;-77
2021/09/22 10:49:48;;;;;;;8.30;7.37;;;21.80;99.90;;;;;;5033785;28;20408;-76
2021/09/22 10:52:33;;;;;;;7.50;6.70;;;21.90;99.90;;;;;;5033882;28;20448;-77
2021/09/22 10:55:18;;;;;;;8.43;5.70;;;22.00;99.90;;;;;;5015801;28;20584;-76
2021/09/22 10:57:46;;;;;;;6.03;5.43;;;21.80;99.90;;;;;;5033661;28;20409;-77
2021/09/22 11:00:19;;;;;;;5.97;5.10;;;21.50;99.90;;;;;;5033697;28;20413;-76
2021/09/22 11:02:53;;;;;;;4.90;4.40;;;21.70;99.90;;;;;;5033382;28;20432;-76
2021/09/22 11:05:28;;;;;;;6.30;4.53;;;21.70;99.90;;;;;;5033418;28;20469;-74
2021/09/22 11:07:55;;;;;;;4.97;4.50;;;21.60;99.90;;;;;;5015520;28;20783;-76
2021/09/22 11:10:46;;;;;;;5.30;4.50;;;21.60;99.90;;;;;;5015891;28;20408;-76
2021/09/22 11:13:23;;;;;;;7.83;5.53;;;21.80;99.90;;;;;;5033475;28;20978;-76
2021/09/22 11:16:10;;;;;;;4.40;4.00;;;21.50;99.90;;;;;;5033027;28;20413;-77
2021/09/22 11:18:40;;;;;;;5.20;3.90;;;21.50;99.90;;;;;;5033078;28;20417;-77
2021/09/22 11:21:05;;;;;;;7.33;5.40;;;21.90;99.90;;;;;;5032973;28;20437;-76
2021/09/22 11:23:31;;;;;;;5.27;4.80;;;22.20;99.90;;;;;;5033014;28;20438;-76
2021/09/22 11:26:08;;;;;;;5.63;5.13;;;22.10;99.90;;;;;;5032944;28;20835;-76
2021/09/22 11:28:35;;;;;;;5.70;5.10;;;21.90;99.90;;;;;;5033117;28;20777;-77
2021/09/22 11:31:01;;;;;;;5.70;5.20;;;22.00;99.90;;;;;;5032837;28;20476;-77
2021/09/22 11:33:28;;;;;;;9.63;4.67;;;22.30;99.90;;;;;;5032607;28;20888;-76
2021/09/22 11:36:03;;;;;;;5.10;4.80;;;22.00;99.90;;;;;;5032692;28;20174;-77
2021/09/22 11:38:33;;;;;;;6.37;5.27;;;22.20;99.90;;;;;;5032858;28;20408;-76
2021/09/22 11:40:58;;;;;;;6.07;5.47;;;22.50;99.90;;;;;;5032634;28;21209;-76
2021/09/22 11:43:24;;;;;;;7.57;5.43;;;22.40;99.90;;;;;;5032897;28;20411;-76
2021/09/22 11:46:00;;;;;;;5.47;4.60;;;22.30;99.90;;;;;;5032464;28;20170;-76
2021/09/22 11:48:31;;;;;;;8.00;6.27;;;22.40;99.90;;;;;;5032658;28;20722;-77
2021/09/22 11:50:58;;;;;;;6.53;5.53;;;22.30;99.90;;;;;;5032433;28;20522;-77
2021/09/22 11:53:26;;;;;;;6.30;5.53;;;22.00;99.90;;;;;;5032621;28;20453;-75
2021/09/22 11:55:52;;;;;;;9.03;6.40;;;22.10;99.90;;;;;;5032404;28;20420;-76
2021/09/22 11:58:20;;;;;;;6.50;4.50;;;22.30;99.90;;;;;;5032495;28;20412;-76
2021/09/22 12:00:50;;;;;;;3.90;3.50;;;22.30;99.90;;;;;;5032575;28;20416;-76
2021/09/22 12:03:16;;;;;;;4.23;3.43;;;22.30;99.90;;;;;;5031079;28;20437;-77
2021/09/22 12:05:42;;;;;;;4.30;3.90;;;22.20;99.90;;;;;;5032329;28;20448;-76
2021/09/22 12:08:09;;;;;;;3.27;2.83;;;22.00;99.90;;;;;;5031490;28;20904;-76
2021/09/22 12:10:40;;;;;;;3.90;3.50;;;22.00;99.90;;;;;;5032666;28;20428;-77
2021/09/22 12:13:06;;;;;;;8.20;3.30;;;22.00;99.90;;;;;;5031967;28;20510;-76
2021/09/22 12:15:33;;;;;;;4.10;3.80;;;21.90;99.90;;;;;;5014625;28;20424;-76
2021/09/22 12:17:59;;;;;;;3.90;3.60;;;21.60;99.90;;;;;;5014237;28;20204;-77
2021/09/22 12:20:25;;;;;;;3.97;3.67;;;21.30;99.90;;;;;;5032277;28;20416;-76
2021/09/22 12:22:56;;;;;;;3.67;3.27;;;21.00;99.90;;;;;;5031754;28;20979;-77
2021/09/22 12:25:22;;;;;;;5.60;3.60;;;20.90;99.90;;;;;;5014910;28;20956;-76
2021/09/22 12:27:49;;;;;;;3.07;2.87;;;20.80;99.90;;;;;;5033208;28;20499;-76
2021/09/22 12:30:16;;;;;;;3.57;3.30;;;20.60;99.90;;;;;;5032884;28;20208;-76
2021/09/22 12:33:02;;;;;;;7.00;2.60;;;20.30;99.90;;;;;;5031621;28;20540;-76
2021/09/22 12:35:33;;;;;;;7.53;4.30;;;20.30;99.90;;;;;;5014074;28;20463;-75
2021/09/22 12:38:06;;;;;;;4.30;3.03;;;20.40;99.90;;;;;;5031682;28;20413;-77
2021/09/22 12:40:40;;;;;;;4.93;2.30;;;20.30;99.90;;;;;;5031960;28;20432;-76
2021/09/22 12:43:19;;;;;;;3.07;2.77;;;20.20;99.90;;;;;;5031749;28;20413;-76
2021/09/22 12:45:45;;;;;;;3.57;2.70;;;19.80;99.90;;;;;;5031597;28;20420;-76
2021/09/22 12:48:23;;;;;;;3.27;3.00;;;19.70;99.90;;;;;;5031486;28;20425;-77
2021/09/22 12:50:48;;;;;;;4.27;3.87;;;19.70;99.90;;;;;;5031697;28;20568;-76
2021/09/22 12:53:16;;;;;;;7.10;2.37;;;19.70;99.90;;;;;;5013858;28;20456;-76
2021/09/22 12:55:47;;;;;;;4.67;2.57;;;19.60;99.90;;;;;;5031795;28;20181;-76
2021/09/22 12:58:16;;;;;;;5.30;3.20;;;19.80;99.90;;;;;;5031521;28;20413;-77
2021/09/22 13:01:00;;;;;;;4.23;3.03;;;19.80;99.90;;;;;;5031737;28;20428;-76
2021/09/22 13:03:36;;;;;;;3.30;3.00;;;19.70;99.90;;;;;;5031524;28;20421;-77
2021/09/22 13:06:19;;;;;;;3.90;3.10;;;19.70;99.90;;;;;;5031413;28;20519;-77
2021/09/22 13:08:49;;;;;;;4.53;2.90;;;19.80;99.90;;;;;;5013888;28;20431;-76
2021/09/22 13:11:17;;;;;;;5.70;3.90;;;19.90;99.90;;;;;;5031674;28;20535;-76
2021/09/22 13:13:46;;;;;;;2.83;2.60;;;19.80;99.90;;;;;;5031015;28;20460;-77
2021/09/22 13:16:30;;;;;;;2.57;2.37;;;19.80;99.90;;;;;;5031320;28;20478;-77
2021/09/22 13:18:57;;;;;;;5.97;3.33;;;19.70;99.90;;;;;;5033435;28;20420;-76
2021/09/22 13:21:23;;;;;;;3.33;3.13;;;19.70;99.90;;;;;;5035426;28;20444;-77
2021/09/22 13:23:52;;;;;;;3.90;3.60;;;19.70;99.90;;;;;;5035274;28;20440;-77
2021/09/22 13:26:18;;;;;;;3.20;2.83;;;19.70;99.90;;;;;;5035445;28;20423;-76
2021/09/22 13:28:45;;;;;;;6.00;2.90;;;19.80;99.90;;;;;;5035435;28;20470;-77
2021/09/22 13:31:11;;;;;;;3.67;3.13;;;19.90;99.90;;;;;;5017530;28;20440;-78
2021/09/22 13:33:37;;;;;;;11.43;3.30;;;20.00;99.90;;;;;;5035268;28;20511;-77
2021/09/22 13:36:04;;;;;;;5.00;3.10;;;20.00;99.90;;;;;;5035242;28;20205;-76
2021/09/22 13:38:31;;;;;;;3.43;3.13;;;19.90;99.90;;;;;;5035063;28;20499;-76
2021/09/22 13:40:57;;;;;;;4.40;2.60;;;20.00;99.90;;;;;;5034810;28;20800;-75
2021/09/22 13:43:26;;;;;;;3.80;3.50;;;20.10;99.90;;;;;;5035046;28;20412;-76
2021/09/22 13:45:55;;;;;;;3.70;3.40;;;20.00;99.90;;;;;;5034644;28;20224;-75
2021/09/22 13:48:22;;;;;;;6.00;3.33;;;20.00;99.90;;;;;;5032609;28;20444;-75
2021/09/22 13:50:48;;;;;;;4.60;3.57;;;20.00;99.90;;;;;;5034597;28;20511;-75
2021/09/22 13:53:19;;;;;;;4.30;3.93;;;20.00;99.90;;;;;;5034841;28;20452;-75
2021/09/22 13:55:45;;;;;;;3.93;3.53;;;19.80;99.90;;;;;;5034466;28;20413;-75
2021/09/22 13:58:12;;;;;;;4.00;3.00;;;19.80;99.90;;;;;;5034600;28;20412;-75
2021/09/22 14:00:39;;;;;;;4.20;3.80;;;19.80;99.90;;;;;;5034408;28;20940;-75
2021/09/22 14:03:05;;;;;;;3.70;3.40;;;19.80;99.90;;;;;;5034525;28;20444;-76
2021/09/22 14:05:31;;;;;;;3.67;3.37;;;19.60;99.90;;;;;;5034814;28;20851;-75
2021/09/22 14:08:01;;;;;;;3.80;2.97;;;19.50;99.90;;;;;;5034033;28;20467;-75
2021/09/22 14:10:27;;;;;;;4.07;3.57;;;19.40;99.90;;;;;;5034584;28;20455;-75
2021/09/22 14:12:59;;;;;;;3.63;3.23;;;19.40;99.90;;;;;;5034012;28;20431;-75
2021/09/22 14:15:30;;;;;;;7.60;3.20;;;19.40;99.90;;;;;;5034548;28;20496;-76
2021/09/22 14:17:56;;;;;;;3.73;3.30;;;19.40;99.90;;;;;;5034022;28;20422;-76
2021/09/22 14:20:23;;;;;;;4.50;3.33;;;19.40;99.90;;;;;;5034400;28;20408;-76
2021/09/22 14:22:48;;;;;;;2.77;2.57;;;19.60;99.90;;;;;;5033919;28;20262;-75
2021/09/22 14:25:16;;;;;;;2.87;2.67;;;19.50;99.90;;;;;;5034365;28;20420;-76
2021/09/22 14:27:42;;;;;;;3.80;3.40;;;19.60;99.90;;;;;;5033987;28;20166;-76
2021/09/22 14:30:08;;;;;;;3.30;3.10;;;19.50;99.90;;;;;;5032314;28;20409;-76
2021/09/22 14:32:34;;;;;;;3.77;3.47;;;19.50;99.90;;;;;;5034150;28;20957;-76
2021/09/22 14:34:59;;;;;;;3.57;3.23;;;19.40;99.90;;;;;;5034019;28;20468;-76
2021/09/22 14:37:25;;;;;;;4.10;3.00;;;19.30;99.90;;;;;;5033604;28;20228;-76
2021/09/22 14:39:50;;;;;;;3.60;3.30;;;19.40;99.90;;;;;;5026789;28;20190;-76
2021/09/22 14:42:16;;;;;;;3.80;3.33;;;19.40;99.90;;;;;;5037557;28;20259;-75
2021/09/22 14:44:41;;;;;;;3.13;2.70;;;19.40;99.90;;;;;;5033794;28;20561;-76
2021/09/22 14:47:08;;;;;;;5.50;3.00;;;19.40;99.90;;;;;;5033401;28;20188;-76
2021/09/22 14:49:35;;;;;;;3.53;3.13;;;19.40;99.90;;;;;;5033762;28;20181;-75
2021/09/22 14:52:01;;;;;;;11.90;3.23;;;19.30;99.90;;;;;;5033379;28;20441;-76
2021/09/22 14:54:27;;;;;;;4.30;3.03;;;19.40;99.90;;;;;;5033382;28;20460;-75
2021/09/22 14:56:52;;;;;;;5.40;2.50;;;19.30;99.90;;;;;;5033045;28;20470;-75
2021/09/22 14:59:19;;;;;;;2.53;2.17;;;19.30;99.90;;;;;;5033539;28;20522;-75
2021/09/22 15:01:44;;;;;;;1.90;1.80;;;19.30;99.90;;;;;;5032933;28;20283;-75
2021/09/22 15:04:10;;;;;;;2.97;1.83;;;19.30;99.90;;;;;;5033159;28;20512;-74
2021/09/22 15:06:35;;;;;;;3.00;1.83;;;19.30;99.90;;;;;;5033048;28;20193;-75
2021/09/22 15:09:01;;;;;;;4.33;2.07;;;19.30;99.90;;;;;;5033079;28;20196;-76
2021/09/22 15:11:27;;;;;;;2.03;1.83;;;19.20;99.90;;;;;;5033245;28;20666;-77
2021/09/22 15:13:52;;;;;;;2.90;2.37;;;19.20;99.90;;;;;;5015277;28;20615;-76
2021/09/22 15:16:19;;;;;;;3.20;2.17;;;19.20;99.90;;;;;;5032660;28;20549;-75
2021/09/22 15:18:44;;;;;;;2.60;2.37;;;19.10;99.90;;;;;;5032659;28;20544;-76
2021/09/22 15:21:10;;;;;;;2.40;2.13;;;19.10;99.90;;;;;;5033044;28;20439;-75
2021/09/22 15:23:36;;;;;;;2.63;2.43;;;19.10;99.90;;;;;;5032684;28;20280;-76
2021/09/22 15:26:03;;;;;;;2.20;1.73;;;19.00;99.90;;;;;;5032816;28;20187;-77
2021/09/22 15:28:29;;;;;;;7.93;1.50;;;19.00;99.90;;;;;;5032626;28;20417;-77
2021/09/22 15:30:54;;;;;;;2.00;1.67;;;18.90;99.90;;;;;;5032824;28;20451;-77
2021/09/22 15:33:20;;;;;;;5.43;2.07;;;18.80;99.90;;;;;;5032729;28;20244;-76
2021/09/22 15:35:45;;;;;;;2.20;1.67;;;18.80;99.90;;;;;;5032874;28;20178;-73
2021/09/22 15:38:11;;;;;;;1.90;1.80;;;18.80;99.90;;;;;;5032958;28;20178;-73
2021/09/22 15:40:36;;;;;;;2.80;2.23;;;18.70;99.90;;;;;;5032647;28;20181;-73
2021/09/22 15:43:03;;;;;;;3.60;2.37;;;18.70;99.90;;;;;;5031585;28;20174;-73
2021/09/22 15:45:32;;;;;;;7.20;6.23;;;18.60;99.90;;;;;;5032748;28;20698;-73
2021/09/22 15:47:58;;;;;;;3.53;2.30;;;18.60;99.90;;;;;;5032391;28;20413;-73
2021/09/22 15:50:24;;;;;;;1.73;1.63;;;18.50;99.90;;;;;;5032607;28;20902;-73
2021/09/22 15:52:49;;;;;;;3.90;2.37;;;18.40;99.90;;;;;;5032339;28;20213;-73
2021/09/22 15:55:16;;;;;;;2.93;1.77;;;18.40;99.90;;;;;;5032556;28;20693;-73
2021/09/22 15:57:42;;;;;;;2.40;1.93;;;18.30;99.90;;;;;;5032277;28;20170;-74
2021/09/22 16:00:09;;;;;;;3.07;2.20;;;18.20;99.90;;;;;;5032520;28;20409;-76
2021/09/22 16:02:35;;;;;;;8.20;2.23;;;18.10;99.90;;;;;;5032258;28;20206;-75
2021/09/22 16:05:01;;;;;;;4.83;1.80;;;18.10;99.90;;;;;;5032381;28;20424;-77
2021/09/22 16:07:28;;;;;;;4.20;2.17;;;18.10;99.90;;;;;;5032105;28;20421;-75
2021/09/22 16:09:54;;;;;;;4.80;2.43;;;18.00;99.90;;;;;;5032192;28;20528;-76
2021/09/22 16:12:20;;;;;;;3.47;2.60;;;17.90;99.90;;;;;;5032256;28;20883;-75
2021/09/22 16:14:46;;;;;;;2.40;2.20;;;17.90;99.90;;;;;;5032414;28;20216;-75
2021/09/22 16:17:11;;;;;;;5.97;2.40;;;17.80;99.90;;;;;;5031893;28;20174;-76
2021/09/22 16:19:38;;;;;;;4.77;2.60;;;17.80;99.90;;;;;;5032287;28;20408;-75
2021/09/22 16:22:05;;;;;;;4.80;2.30;;;17.80;99.90;;;;;;5014352;28;20742;-76
2021/09/22 16:24:30;;;;;;;3.40;2.53;;;17.70;99.90;;;;;;5032013;28;20433;-74
2021/09/22 16:26:56;;;;;;;3.97;2.17;;;17.70;99.90;;;;;;5030658;28;20793;-75
2021/09/22 16:29:22;;;;;;;3.17;2.67;;;17.70;99.90;;;;;;5030911;28;20685;-75
2021/09/22 16:31:47;;;;;;;5.13;2.37;;;17.60;99.90;;;;;;5031826;28;20201;-74
2021/09/22 16:34:13;;;;;;;3.27;2.30;;;17.60;99.90;;;;;;5014179;28;20568;-75
2021/09/22 16:36:41;;;;;;;2.67;2.30;;;17.50;99.90;;;;;;5013940;28;20178;-75
2021/09/22 16:39:07;;;;;;;3.30;2.70;;;17.40;99.90;;;;;;5013381;28;20189;-75
2021/09/22 16:41:33;;;;;;;2.57;2.30;;;17.40;99.90;;;;;;5031651;28;20424;-76
2021/09/22 16:43:59;;;;;;;4.27;3.00;;;17.40;99.90;;;;;;5031707;28;20182;-75
2021/09/22 16:46:25;;;;;;;5.13;2.23;;;17.30;99.90;;;;;;5031471;28;20419;-75
2021/09/22 16:48:50;;;;;;;4.50;2.60;;;17.20;99.90;;;;;;5031647;28;20181;-76
2021/09/22 16:51:16;;;;;;;2.10;2.00;;;17.10;99.90;;;;;;5031761;28;20205;-75
2021/09/22 16:53:41;;;;;;;4.00;2.70;;;17.00;99.90;;;;;;5031134;28;20251;-76
2021/09/22 16:56:07;;;;;;;3.90;2.67;;;16.90;99.90;;;;;;5031432;28;20600;-76
2021/09/22 16:58:34;;;;;;;3.50;3.20;;;16.70;99.90;;;;;;5031473;28;20231;-76
2021/09/22 17:00:59;;;;;;;5.97;2.53;;;16.70;99.90;;;;;;5031431;28;20537;-75
2021/09/22 17:03:25;;;;;;;2.63;2.43;;;16.60;99.90;;;;;;5031435;28;20428;-75
2021/09/22 17:05:50;;;;;;;6.00;2.63;;;16.50;99.90;;;;;;5031465;28;20178;-75
2021/09/22 17:08:16;;;;;;;2.43;2.13;;;16.40;99.90;;;;;;5013395;28;20182;-75
2021/09/22 17:10:42;;;;;;;3.40;3.10;;;16.30;99.90;;;;;;5013645;28;20269;-75
2021/09/22 17:13:08;;;;;;;8.33;2.90;;;16.20;99.90;;;;;;5031226;28;20659;-75